sensor_id;sensor_type;location;lat;lon;timestamp;temperature;humidity
24011;DHT22;12217;50.792;4.372;2024-02-26T00:01:10;9.10;99.90
24011;DHT22;12217;50.792;4.372;2024-02-26T00:03:36;9.10;99.90
24011;DHT22;12217;50.792;4.372;2024-02-26T00:06:02;9.00;99.90
24011;DHT22;12217;50.792;4.372;2024-02-26T00:08:28;9.00;99.90
24011;DHT22;12217;50.792;4.372;2024-02-26T00:10:54;9.00;99.90
24011;DHT22;12217;50.792;4.372;2024-02-26T00:13:19;9.10;99.90
24011;DHT22;12217;50.792;4.372;2024-02-26T00:15:45;9.00;99.90
24011;DHT22;12217;50.792;4.372;2024-02-26T00:18:11;9.10;99.90
24011;DHT22;12217;50.792;4.372;2024-02-26T00:20:37;9.10;99.90
24011;DHT22;12217;50.792;4.372;2024-02-26T00:23:02;9.20;99.90
24011;DHT22;12217;50.792;4.372;2024-02-26T00:25:28;9.00;99.90
24011;DHT22;12217;50.792;4.372;2024-02-26T00:27:53;9.00;99.90
24011;DHT22;12217;50.792;4.372;2024-02-26T00:30:19;9.00;99.90
24011;DHT22;12217;50.792;4.372;2024-02-26T00:32:44;9.00;99.90
24011;DHT22;12217;50.792;4.372;2024-02-26T00:35:10;9.00;99.90
24011;DHT22;12217;50.792;4.372;2024-02-26T00:37:36;9.00;99.90
24011;DHT22;12217;50.792;4.372;2024-02-26T00:40:01;9.00;99.90
24011;DHT22;12217;50.792;4.372;2024-02-26T00:42:27;9.00;99.90
24011;DHT22;12217;50.792;4.372;2024-02-26T00:44:52;9.00;99.90
24011;DHT22;12217;50.792;4.372;2024-02-26T00:47:18;8.90;99.90
24011;DHT22;12217;50.792;4.372;2024-02-26T00:49:44;8.90;99.90
24011;DHT22;12217;50.792;4.372;2024-02-26T00:52:09;8.80;99.90
24011;DHT22;12217;50.792;4.372;2024-02-26T00:54:35;8.80;99.90
24011;DHT22;12217;50.792;4.372;2024-02-26T00:57:01;8.90;99.90
24011;DHT22;12217;50.792;4.372;2024-02-26T00:59:26;8.90;99.90
24011;DHT22;12217;50.792;4.372;2024-02-26T01:01:52;8.70;99.90
24011;DHT22;12217;50.792;4.372;2024-02-26T01:04:17;8.70;99.90
24011;DHT22;12217;50.792;4.372;2024-02-26T01:06:43;8.60;99.90
24011;DHT22;12217;50.792;4.372;2024-02-26T01:09:09;8.70;99.90
24011;DHT22;12217;50.792;4.372;2024-02-26T01:11:34;8.70;99.90
24011;DHT22;12217;50.792;4.372;2024-02-26T01:14:00;8.50;99.90
24011;DHT22;12217;50.792;4.372;2024-02-26T01:16:25;8.70;99.90
24011;DHT22;12217;50.792;4.372;2024-02-26T01:18:53;8.80;99.90
24011;DHT22;12217;50.792;4.372;2024-02-26T01:21:19;8.70;99.90
24011;DHT22;12217;50.792;4.372;2024-02-26T01:23:45;8.60;99.90
24011;DHT22;12217;50.792;4.372;2024-02-26T01:26:10;8.60;99.90
24011;DHT22;12217;50.792;4.372;2024-02-26T01:28:36;8.70;99.90
24011;DHT22;12217;50.792;4.372;2024-02-26T01:31:02;8.70;99.90
24011;DHT22;12217;50.792;4.372;2024-02-26T01:33:30;8.80;99.90
24011;DHT22;12217;50.792;4.372;2024-02-26T01:35:56;8.70;99.90
24011;DHT22;12217;50.792;4.372;2024-02-26T01:38:21;8.60;99.90
24011;DHT22;12217;50.792;4.372;2024-02-26T01:40:47;8.60;99.90
24011;DHT22;12217;50.792;4.372;2024-02-26T01:43:12;8.50;99.90
24011;DHT22;12217;50.792;4.372;2024-02-26T01:45:38;8.60;99.90
24011;DHT22;12217;50.792;4.372;2024-02-26T01:48:03;8.60;99.90
24011;DHT22;12217;50.792;4.372;2024-02-26T01:50:29;8.40;99.90
24011;DHT22;12217;50.792;4.372;2024-02-26T01:52:55;8.40;99.90
24011;DHT22;12217;50.792;4.372;2024-02-26T01:55:23;8.50;99.90
24011;DHT22;12217;50.792;4.372;2024-02-26T01:57:50;8.60;99.90
24011;DHT22;12217;50.792;4.372;2024-02-26T02:00:18;8.60;99.90
24011;DHT22;12217;50.792;4.372;2024-02-26T02:02:44;8.50;99.90
24011;DHT22;12217;50.792;4.372;2024-02-26T02:05:12;8.40;99.90
24011;DHT22;12217;50.792;4.372;2024-02-26T02:07:39;8.40;99.90
24011;DHT22;12217;50.792;4.372;2024-02-26T02:10:05;8.50;99.90
24011;DHT22;12217;50.792;4.372;2024-02-26T02:12:32;8.50;99.90
24011;DHT22;12217;50.792;4.372;2024-02-26T02:14:58;8.50;99.90
24011;DHT22;12217;50.792;4.372;2024-02-26T02:17:24;8.40;99.90
24011;DHT22;12217;50.792;4.372;2024-02-26T02:19:50;8.40;99.90
24011;DHT22;12217;50.792;4.372;2024-02-26T02:22:15;8.30;99.90
24011;DHT22;12217;50.792;4.372;2024-02-26T02:24:41;8.30;99.90
24011;DHT22;12217;50.792;4.372;2024-02-26T02:27:07;8.30;99.90
24011;DHT22;12217;50.792;4.372;2024-02-26T02:29:32;8.30;99.90
24011;DHT22;12217;50.792;4.372;2024-02-26T02:31:59;8.20;99.90
24011;DHT22;12217;50.792;4.372;2024-02-26T02:34:26;8.30;99.90
24011;DHT22;12217;50.792;4.372;2024-02-26T02:36:52;8.30;99.90
24011;DHT22;12217;50.792;4.372;2024-02-26T02:39:18;8.40;99.90
24011;DHT22;12217;50.792;4.372;2024-02-26T02:41:44;8.30;99.90
24011;DHT22;12217;50.792;4.372;2024-02-26T02:44:09;8.30;99.90
24011;DHT22;12217;50.792;4.372;2024-02-26T02:46:35;8.40;99.90
24011;DHT22;12217;50.792;4.372;2024-02-26T02:49:01;8.40;99.90
24011;DHT22;12217;50.792;4.372;2024-02-26T02:51:26;8.40;99.90
24011;DHT22;12217;50.792;4.372;2024-02-26T02:53:52;8.40;99.90
24011;DHT22;12217;50.792;4.372;2024-02-26T02:56:18;8.30;99.90
24011;DHT22;12217;50.792;4.372;2024-02-26T02:58:44;8.30;99.90
24011;DHT22;12217;50.792;4.372;2024-02-26T03:01:09;8.30;99.90
24011;DHT22;12217;50.792;4.372;2024-02-26T03:03:35;8.30;99.90
24011;DHT22;12217;50.792;4.372;2024-02-26T03:06:02;8.30;99.90
24011;DHT22;12217;50.792;4.372;2024-02-26T03:08:28;8.30;99.90
24011;DHT22;12217;50.792;4.372;2024-02-26T03:10:54;8.30;99.90
24011;DHT22;12217;50.792;4.372;2024-02-26T03:13:19;8.30;99.90
24011;DHT22;12217;50.792;4.372;2024-02-26T03:15:45;8.30;99.90
24011;DHT22;12217;50.792;4.372;2024-02-26T03:18:11;8.30;99.90
24011;DHT22;12217;50.792;4.372;2024-02-26T03:20:36;8.30;99.90
24011;DHT22;12217;50.792;4.372;2024-02-26T03:23:02;8.30;99.90
24011;DHT22;12217;50.792;4.372;2024-02-26T03:25:28;8.30;99.90
24011;DHT22;12217;50.792;4.372;2024-02-26T03:27:54;8.40;99.90
24011;DHT22;12217;50.792;4.372;2024-02-26T03:30:19;8.20;99.90
24011;DHT22;12217;50.792;4.372;2024-02-26T03:32:45;8.20;99.90
24011;DHT22;12217;50.792;4.372;2024-02-26T03:35:12;8.20;99.90
24011;DHT22;12217;50.792;4.372;2024-02-26T03:37:37;8.30;99.90
24011;DHT22;12217;50.792;4.372;2024-02-26T03:40:04;8.30;99.90
24011;DHT22;12217;50.792;4.372;2024-02-26T03:42:29;8.30;99.90
24011;DHT22;12217;50.792;4.372;2024-02-26T03:44:55;8.20;99.90
24011;DHT22;12217;50.792;4.372;2024-02-26T03:47:20;8.20;99.90
24011;DHT22;12217;50.792;4.372;2024-02-26T03:49:46;8.30;99.90
24011;DHT22;12217;50.792;4.372;2024-02-26T03:52:11;8.30;99.90
24011;DHT22;12217;50.792;4.372;2024-02-26T03:54:37;8.20;99.90
24011;DHT22;12217;50.792;4.372;2024-02-26T03:57:03;8.00;99.90
24011;DHT22;12217;50.792;4.372;2024-02-26T03:59:28;8.10;99.90
24011;DHT22;12217;50.792;4.372;2024-02-26T04:01:54;8.10;99.90
24011;DHT22;12217;50.792;4.372;2024-02-26T04:04:19;8.20;99.90
24011;DHT22;12217;50.792;4.372;2024-02-26T04:06:46;8.30;99.90
24011;DHT22;12217;50.792;4.372;2024-02-26T04:09:15;8.30;99.90
24011;DHT22;12217;50.792;4.372;2024-02-26T04:11:41;8.30;99.90
24011;DHT22;12217;50.792;4.372;2024-02-26T04:14:08;8.20;99.90
24011;DHT22;12217;50.792;4.372;2024-02-26T04:16:34;8.10;99.90
24011;DHT22;12217;50.792;4.372;2024-02-26T04:19:03;8.10;99.90
24011;DHT22;12217;50.792;4.372;2024-02-26T04:21:28;8.20;99.90
24011;DHT22;12217;50.792;4.372;2024-02-26T04:23:54;8.20;99.90
24011;DHT22;12217;50.792;4.372;2024-02-26T04:26:26;8.20;99.90
24011;DHT22;12217;50.792;4.372;2024-02-26T04:28:51;8.10;99.90
24011;DHT22;12217;50.792;4.372;2024-02-26T04:31:18;8.10;99.90
24011;DHT22;12217;50.792;4.372;2024-02-26T04:33:44;8.10;99.90
24011;DHT22;12217;50.792;4.372;2024-02-26T04:36:15;8.10;99.90
24011;DHT22;12217;50.792;4.372;2024-02-26T04:38:45;8.20;99.90
24011;DHT22;12217;50.792;4.372;2024-02-26T04:41:11;8.30;99.90
24011;DHT22;12217;50.792;4.372;2024-02-26T04:43:37;8.40;99.90
24011;DHT22;12217;50.792;4.372;2024-02-26T04:46:09;8.40;99.90
24011;DHT22;12217;50.792;4.372;2024-02-26T04:48:38;8.30;99.90
24011;DHT22;12217;50.792;4.372;2024-02-26T04:51:07;8.10;99.90
24011;DHT22;12217;50.792;4.372;2024-02-26T04:53:33;8.10;99.90
24011;DHT22;12217;50.792;4.372;2024-02-26T04:55:58;8.10;99.90
24011;DHT22;12217;50.792;4.372;2024-02-26T04:58:24;8.10;99.90
24011;DHT22;12217;50.792;4.372;2024-02-26T05:00:49;8.20;99.90
24011;DHT22;12217;50.792;4.372;2024-02-26T05:03:15;8.20;99.90
24011;DHT22;12217;50.792;4.372;2024-02-26T05:05:44;8.20;99.90
24011;DHT22;12217;50.792;4.372;2024-02-26T05:08:11;8.20;99.90
24011;DHT22;12217;50.792;4.372;2024-02-26T05:10:39;8.30;99.90
24011;DHT22;12217;50.792;4.372;2024-02-26T05:13:07;8.30;99.90
24011;DHT22;12217;50.792;4.372;2024-02-26T05:15:32;8.20;99.90
24011;DHT22;12217;50.792;4.372;2024-02-26T05:17:58;8.20;99.90
24011;DHT22;12217;50.792;4.372;2024-02-26T05:20:24;8.30;99.90
24011;DHT22;12217;50.792;4.372;2024-02-26T05:22:49;8.20;99.90
24011;DHT22;12217;50.792;4.372;2024-02-26T05:25:16;8.10;99.90
24011;DHT22;12217;50.792;4.372;2024-02-26T05:27:43;7.90;99.90
24011;DHT22;12217;50.792;4.372;2024-02-26T05:30:10;8.00;99.90
24011;DHT22;12217;50.792;4.372;2024-02-26T05:32:36;8.10;99.90
24011;DHT22;12217;50.792;4.372;2024-02-26T05:35:02;8.10;99.90
24011;DHT22;12217;50.792;4.372;2024-02-26T05:37:31;8.20;99.90
24011;DHT22;12217;50.792;4.372;2024-02-26T05:39:56;8.30;99.90
24011;DHT22;12217;50.792;4.372;2024-02-26T05:42:22;8.20;99.90
24011;DHT22;12217;50.792;4.372;2024-02-26T05:44:47;8.10;99.90
24011;DHT22;12217;50.792;4.372;2024-02-26T05:47:13;8.10;99.90
24011;DHT22;12217;50.792;4.372;2024-02-26T05:49:39;8.10;99.90
24011;DHT22;12217;50.792;4.372;2024-02-26T05:52:05;8.10;99.90
24011;DHT22;12217;50.792;4.372;2024-02-26T05:54:31;8.10;99.90
24011;DHT22;12217;50.792;4.372;2024-02-26T05:56:57;8.10;99.90
24011;DHT22;12217;50.792;4.372;2024-02-26T05:59:23;8.10;99.90
24011;DHT22;12217;50.792;4.372;2024-02-26T06:01:48;8.10;99.90
24011;DHT22;12217;50.792;4.372;2024-02-26T06:04:14;8.10;99.90
24011;DHT22;12217;50.792;4.372;2024-02-26T06:06:39;8.10;99.90
24011;DHT22;12217;50.792;4.372;2024-02-26T06:09:05;8.00;99.90
24011;DHT22;12217;50.792;4.372;2024-02-26T06:11:31;8.10;99.90
24011;DHT22;12217;50.792;4.372;2024-02-26T06:13:57;8.10;99.90
24011;DHT22;12217;50.792;4.372;2024-02-26T06:16:22;7.80;99.90
24011;DHT22;12217;50.792;4.372;2024-02-26T06:18:48;7.80;99.90
24011;DHT22;12217;50.792;4.372;2024-02-26T06:21:13;7.90;99.90
24011;DHT22;12217;50.792;4.372;2024-02-26T06:23:39;8.00;99.90
24011;DHT22;12217;50.792;4.372;2024-02-26T06:26:06;8.10;99.90
24011;DHT22;12217;50.792;4.372;2024-02-26T06:28:31;8.20;99.90
24011;DHT22;12217;50.792;4.372;2024-02-26T06:30:59;8.20;99.90
24011;DHT22;12217;50.792;4.372;2024-02-26T06:33:25;8.10;99.90
24011;DHT22;12217;50.792;4.372;2024-02-26T06:35:50;7.90;99.90
24011;DHT22;12217;50.792;4.372;2024-02-26T06:38:16;8.00;99.90
24011;DHT22;12217;50.792;4.372;2024-02-26T06:40:43;8.10;99.90
24011;DHT22;12217;50.792;4.372;2024-02-26T06:43:09;8.20;99.90
24011;DHT22;12217;50.792;4.372;2024-02-26T06:45:34;8.10;99.90
24011;DHT22;12217;50.792;4.372;2024-02-26T06:48:00;7.90;99.90
24011;DHT22;12217;50.792;4.372;2024-02-26T06:50:26;8.00;99.90
24011;DHT22;12217;50.792;4.372;2024-02-26T06:52:51;7.90;99.90
24011;DHT22;12217;50.792;4.372;2024-02-26T06:55:17;7.80;99.90
24011;DHT22;12217;50.792;4.372;2024-02-26T06:57:42;7.90;99.90
24011;DHT22;12217;50.792;4.372;2024-02-26T07:00:08;7.90;99.90
24011;DHT22;12217;50.792;4.372;2024-02-26T07:02:37;8.00;99.90
24011;DHT22;12217;50.792;4.372;2024-02-26T07:05:03;8.00;99.90
24011;DHT22;12217;50.792;4.372;2024-02-26T07:07:29;7.90;99.90
24011;DHT22;12217;50.792;4.372;2024-02-26T07:09:55;7.90;99.90
24011;DHT22;12217;50.792;4.372;2024-02-26T07:12:21;8.00;99.90
24011;DHT22;12217;50.792;4.372;2024-02-26T07:14:47;7.80;99.90
24011;DHT22;12217;50.792;4.372;2024-02-26T07:17:14;7.80;99.90
24011;DHT22;12217;50.792;4.372;2024-02-26T07:19:41;7.80;99.90
24011;DHT22;12217;50.792;4.372;2024-02-26T07:22:07;7.70;99.90
24011;DHT22;12217;50.792;4.372;2024-02-26T07:24:33;7.80;99.90
24011;DHT22;12217;50.792;4.372;2024-02-26T07:26:58;7.90;99.90
24011;DHT22;12217;50.792;4.372;2024-02-26T07:29:24;7.80;99.90
24011;DHT22;12217;50.792;4.372;2024-02-26T07:31:49;7.70;99.90
24011;DHT22;12217;50.792;4.372;2024-02-26T07:34:15;7.90;99.90
24011;DHT22;12217;50.792;4.372;2024-02-26T07:36:40;7.90;99.90
24011;DHT22;12217;50.792;4.372;2024-02-26T07:39:06;8.00;99.90
24011;DHT22;12217;50.792;4.372;2024-02-26T07:41:32;7.90;99.90
24011;DHT22;12217;50.792;4.372;2024-02-26T07:43:58;7.90;99.90
24011;DHT22;12217;50.792;4.372;2024-02-26T07:46:23;8.00;99.90
24011;DHT22;12217;50.792;4.372;2024-02-26T07:48:49;7.90;99.90
24011;DHT22;12217;50.792;4.372;2024-02-26T07:51:15;7.80;99.90
24011;DHT22;12217;50.792;4.372;2024-02-26T07:53:40;7.90;99.90
24011;DHT22;12217;50.792;4.372;2024-02-26T07:56:06;7.70;99.90
24011;DHT22;12217;50.792;4.372;2024-02-26T07:58:33;7.80;99.90
24011;DHT22;12217;50.792;4.372;2024-02-26T08:00:59;7.90;99.90
24011;DHT22;12217;50.792;4.372;2024-02-26T08:03:24;7.90;99.90
24011;DHT22;12217;50.792;4.372;2024-02-26T08:05:51;7.90;99.90
24011;DHT22;12217;50.792;4.372;2024-02-26T08:08:17;8.00;99.90
24011;DHT22;12217;50.792;4.372;2024-02-26T08:10:43;8.00;99.90
24011;DHT22;12217;50.792;4.372;2024-02-26T08:13:09;7.90;99.90
24011;DHT22;12217;50.792;4.372;2024-02-26T08:15:35;7.80;99.90
24011;DHT22;12217;50.792;4.372;2024-02-26T08:18:03;7.80;99.90
24011;DHT22;12217;50.792;4.372;2024-02-26T08:20:29;7.80;99.90
24011;DHT22;12217;50.792;4.372;2024-02-26T08:22:55;7.80;99.90
24011;DHT22;12217;50.792;4.372;2024-02-26T08:25:22;7.90;99.90
24011;DHT22;12217;50.792;4.372;2024-02-26T08:27:48;7.90;99.90
24011;DHT22;12217;50.792;4.372;2024-02-26T08:30:14;8.00;99.90
24011;DHT22;12217;50.792;4.372;2024-02-26T08:32:43;7.90;99.90
24011;DHT22;12217;50.792;4.372;2024-02-26T08:35:08;7.90;99.90
24011;DHT22;12217;50.792;4.372;2024-02-26T08:37:34;7.90;99.90
24011;DHT22;12217;50.792;4.372;2024-02-26T08:39:59;8.10;99.90
24011;DHT22;12217;50.792;4.372;2024-02-26T08:42:25;8.00;99.90
24011;DHT22;12217;50.792;4.372;2024-02-26T08:44:51;7.90;99.90
24011;DHT22;12217;50.792;4.372;2024-02-26T08:47:16;8.00;99.90
24011;DHT22;12217;50.792;4.372;2024-02-26T08:49:44;8.10;99.90
24011;DHT22;12217;50.792;4.372;2024-02-26T08:52:09;8.00;99.90
24011;DHT22;12217;50.792;4.372;2024-02-26T08:54:35;8.10;99.90
24011;DHT22;12217;50.792;4.372;2024-02-26T08:57:00;8.00;99.90
24011;DHT22;12217;50.792;4.372;2024-02-26T08:59:26;8.00;99.90
24011;DHT22;12217;50.792;4.372;2024-02-26T09:01:51;8.00;99.90
24011;DHT22;12217;50.792;4.372;2024-02-26T09:04:17;8.10;99.90
24011;DHT22;12217;50.792;4.372;2024-02-26T09:06:42;7.90;99.90
24011;DHT22;12217;50.792;4.372;2024-02-26T09:09:08;7.90;99.90
24011;DHT22;12217;50.792;4.372;2024-02-26T09:11:34;7.80;99.90
24011;DHT22;12217;50.792;4.372;2024-02-26T09:13:59;7.90;99.90
24011;DHT22;12217;50.792;4.372;2024-02-26T09:16:25;8.00;99.90
24011;DHT22;12217;50.792;4.372;2024-02-26T09:18:50;7.90;99.90
24011;DHT22;12217;50.792;4.372;2024-02-26T09:21:16;8.00;99.90
24011;DHT22;12217;50.792;4.372;2024-02-26T09:23:48;8.00;99.90
24011;DHT22;12217;50.792;4.372;2024-02-26T09:26:14;8.10;99.90
24011;DHT22;12217;50.792;4.372;2024-02-26T09:28:39;8.10;99.90
24011;DHT22;12217;50.792;4.372;2024-02-26T09:31:05;8.20;99.90
24011;DHT22;12217;50.792;4.372;2024-02-26T09:33:32;8.10;99.90
24011;DHT22;12217;50.792;4.372;2024-02-26T09:35:57;8.10;99.90
24011;DHT22;12217;50.792;4.372;2024-02-26T09:38:23;7.90;99.90
24011;DHT22;12217;50.792;4.372;2024-02-26T09:40:49;7.90;99.90
24011;DHT22;12217;50.792;4.372;2024-02-26T09:43:17;7.90;99.90
24011;DHT22;12217;50.792;4.372;2024-02-26T09:45:45;7.80;99.90
24011;DHT22;12217;50.792;4.372;2024-02-26T09:48:12;8.00;99.90
24011;DHT22;12217;50.792;4.372;2024-02-26T09:50:40;8.00;99.90
24011;DHT22;12217;50.792;4.372;2024-02-26T09:53:08;8.00;99.90
24011;DHT22;12217;50.792;4.372;2024-02-26T09:55:35;7.90;99.90
24011;DHT22;12217;50.792;4.372;2024-02-26T09:58:01;8.10;99.90
24011;DHT22;12217;50.792;4.372;2024-02-26T10:00:31;8.20;99.90
24011;DHT22;12217;50.792;4.372;2024-02-26T10:03:02;8.10;99.90
24011;DHT22;12217;50.792;4.372;2024-02-26T10:05:29;8.10;99.90
24011;DHT22;12217;50.792;4.372;2024-02-26T10:07:56;8.10;99.90
24011;DHT22;12217;50.792;4.372;2024-02-26T10:10:23;8.10;99.90
24011;DHT22;12217;50.792;4.372;2024-02-26T10:12:49;8.00;99.90
24011;DHT22;12217;50.792;4.372;2024-02-26T10:15:15;8.00;99.90
24011;DHT22;12217;50.792;4.372;2024-02-26T10:17:41;8.00;99.90
24011;DHT22;12217;50.792;4.372;2024-02-26T10:20:13;8.00;99.90
24011;DHT22;12217;50.792;4.372;2024-02-26T10:22:45;7.80;99.90
24011;DHT22;12217;50.792;4.372;2024-02-26T10:25:11;7.90;99.90
24011;DHT22;12217;50.792;4.372;2024-02-26T10:27:37;7.80;99.90
24011;DHT22;12217;50.792;4.372;2024-02-26T10:30:04;7.80;99.90
24011;DHT22;12217;50.792;4.372;2024-02-26T10:32:30;7.90;99.90
24011;DHT22;12217;50.792;4.372;2024-02-26T10:34:56;8.00;99.90
24011;DHT22;12217;50.792;4.372;2024-02-26T10:37:23;8.00;99.90
24011;DHT22;12217;50.792;4.372;2024-02-26T10:39:48;8.20;99.90
24011;DHT22;12217;50.792;4.372;2024-02-26T10:42:14;8.20;99.90
24011;DHT22;12217;50.792;4.372;2024-02-26T10:44:40;8.20;99.90
24011;DHT22;12217;50.792;4.372;2024-02-26T10:47:07;8.10;99.90
24011;DHT22;12217;50.792;4.372;2024-02-26T10:49:35;8.10;99.90
24011;DHT22;12217;50.792;4.372;2024-02-26T10:52:01;8.10;99.90
24011;DHT22;12217;50.792;4.372;2024-02-26T10:54:29;8.10;99.90
24011;DHT22;12217;50.792;4.372;2024-02-26T10:56:59;8.10;99.90
24011;DHT22;12217;50.792;4.372;2024-02-26T10:59:25;8.00;99.90
24011;DHT22;12217;50.792;4.372;2024-02-26T11:01:51;8.10;99.90
24011;DHT22;12217;50.792;4.372;2024-02-26T11:04:18;8.00;99.90
24011;DHT22;12217;50.792;4.372;2024-02-26T11:06:45;8.00;99.90
24011;DHT22;12217;50.792;4.372;2024-02-26T11:09:12;8.20;99.90
24011;DHT22;12217;50.792;4.372;2024-02-26T11:11:40;8.30;99.90
24011;DHT22;12217;50.792;4.372;2024-02-26T11:14:08;8.40;99.90
24011;DHT22;12217;50.792;4.372;2024-02-26T11:16:35;8.40;99.90
24011;DHT22;12217;50.792;4.372;2024-02-26T11:19:02;8.20;99.90
24011;DHT22;12217;50.792;4.372;2024-02-26T11:21:27;8.10;99.90
24011;DHT22;12217;50.792;4.372;2024-02-26T11:24:13;8.20;99.90
24011;DHT22;12217;50.792;4.372;2024-02-26T11:26:45;8.20;99.90
24011;DHT22;12217;50.792;4.372;2024-02-26T11:29:15;8.30;99.90
24011;DHT22;12217;50.792;4.372;2024-02-26T11:31:42;8.20;99.90
24011;DHT22;12217;50.792;4.372;2024-02-26T11:34:09;8.10;99.90
24011;DHT22;12217;50.792;4.372;2024-02-26T11:36:34;8.10;99.90
24011;DHT22;12217;50.792;4.372;2024-02-26T11:39:02;7.90;99.90
24011;DHT22;12217;50.792;4.372;2024-02-26T11:41:29;7.90;99.90
24011;DHT22;12217;50.792;4.372;2024-02-26T11:44:00;7.90;99.90
24011;DHT22;12217;50.792;4.372;2024-02-26T11:46:30;8.20;99.90
24011;DHT22;12217;50.792;4.372;2024-02-26T11:48:58;8.30;99.90
24011;DHT22;12217;50.792;4.372;2024-02-26T11:51:28;8.30;99.90
24011;DHT22;12217;50.792;4.372;2024-02-26T11:53:57;8.10;99.90
24011;DHT22;12217;50.792;4.372;2024-02-26T11:56:24;8.00;99.90
24011;DHT22;12217;50.792;4.372;2024-02-26T11:58:58;7.80;99.90
24011;DHT22;12217;50.792;4.372;2024-02-26T12:01:40;7.70;99.90
24011;DHT22;12217;50.792;4.372;2024-02-26T12:04:09;7.70;99.90
24011;DHT22;12217;50.792;4.372;2024-02-26T12:06:47;7.90;99.90
24011;DHT22;12217;50.792;4.372;2024-02-26T12:09:13;7.90;99.90
24011;DHT22;12217;50.792;4.372;2024-02-26T12:11:40;7.90;99.90
24011;DHT22;12217;50.792;4.372;2024-02-26T12:14:07;8.00;99.90
24011;DHT22;12217;50.792;4.372;2024-02-26T12:16:40;8.00;99.90
24011;DHT22;12217;50.792;4.372;2024-02-26T12:19:09;7.90;99.90
24011;DHT22;12217;50.792;4.372;2024-02-26T12:21:36;8.00;99.90
24011;DHT22;12217;50.792;4.372;2024-02-26T12:24:14;8.10;99.90
24011;DHT22;12217;50.792;4.372;2024-02-26T12:26:43;7.90;99.90
24011;DHT22;12217;50.792;4.372;2024-02-26T12:29:09;7.90;99.90
24011;DHT22;12217;50.792;4.372;2024-02-26T12:31:36;7.90;99.90
24011;DHT22;12217;50.792;4.372;2024-02-26T12:34:03;7.90;99.90
24011;DHT22;12217;50.792;4.372;2024-02-26T12:36:29;8.00;99.90
24011;DHT22;12217;50.792;4.372;2024-02-26T12:38:55;8.20;99.90
24011;DHT22;12217;50.792;4.372;2024-02-26T12:41:33;8.50;99.90
24011;DHT22;12217;50.792;4.372;2024-02-26T12:44:18;8.80;99.90
24011;DHT22;12217;50.792;4.372;2024-02-26T12:46:43;9.10;99.90
24011;DHT22;12217;50.792;4.372;2024-02-26T12:49:14;9.30;99.90
24011;DHT22;12217;50.792;4.372;2024-02-26T12:51:40;9.40;99.90
24011;DHT22;12217;50.792;4.372;2024-02-26T12:54:07;9.20;99.90
24011;DHT22;12217;50.792;4.372;2024-02-26T12:56:34;8.90;99.90
24011;DHT22;12217;50.792;4.372;2024-02-26T12:59:00;8.80;99.90
24011;DHT22;12217;50.792;4.372;2024-02-26T13:01:28;8.80;99.90
24011;DHT22;12217;50.792;4.372;2024-02-26T13:03:54;8.70;99.90
24011;DHT22;12217;50.792;4.372;2024-02-26T13:06:20;8.60;99.90
24011;DHT22;12217;50.792;4.372;2024-02-26T13:08:47;8.60;99.90
24011;DHT22;12217;50.792;4.372;2024-02-26T13:11:13;8.40;99.90
24011;DHT22;12217;50.792;4.372;2024-02-26T13:13:39;8.10;99.90
24011;DHT22;12217;50.792;4.372;2024-02-26T13:16:13;8.20;99.90
24011;DHT22;12217;50.792;4.372;2024-02-26T13:18:39;8.00;99.90
24011;DHT22;12217;50.792;4.372;2024-02-26T13:21:15;8.20;99.90
24011;DHT22;12217;50.792;4.372;2024-02-26T13:23:42;8.10;99.90
24011;DHT22;12217;50.792;4.372;2024-02-26T13:26:08;8.20;99.90
24011;DHT22;12217;50.792;4.372;2024-02-26T13:28:37;8.20;99.90
24011;DHT22;12217;50.792;4.372;2024-02-26T13:31:02;8.10;99.90
24011;DHT22;12217;50.792;4.372;2024-02-26T13:33:31;8.00;99.90
24011;DHT22;12217;50.792;4.372;2024-02-26T13:35:57;7.80;99.90
24011;DHT22;12217;50.792;4.372;2024-02-26T13:38:23;7.70;99.90
24011;DHT22;12217;50.792;4.372;2024-02-26T13:40:50;7.90;99.90
24011;DHT22;12217;50.792;4.372;2024-02-26T13:43:16;7.80;99.90
24011;DHT22;12217;50.792;4.372;2024-02-26T13:45:41;7.80;99.90
24011;DHT22;12217;50.792;4.372;2024-02-26T13:48:08;7.70;99.90
24011;DHT22;12217;50.792;4.372;2024-02-26T13:50:38;7.50;99.90
24011;DHT22;12217;50.792;4.372;2024-02-26T13:53:03;7.60;99.90
24011;DHT22;12217;50.792;4.372;2024-02-26T13:55:30;7.70;99.90
24011;DHT22;12217;50.792;4.372;2024-02-26T13:57:58;7.80;99.90
24011;DHT22;12217;50.792;4.372;2024-02-26T14:00:24;7.70;99.90
24011;DHT22;12217;50.792;4.372;2024-02-26T14:02:50;7.80;99.90
24011;DHT22;12217;50.792;4.372;2024-02-26T14:05:16;7.80;99.90
24011;DHT22;12217;50.792;4.372;2024-02-26T14:07:42;7.90;99.90
24011;DHT22;12217;50.792;4.372;2024-02-26T14:10:09;7.70;99.90
24011;DHT22;12217;50.792;4.372;2024-02-26T14:12:37;7.70;99.90
24011;DHT22;12217;50.792;4.372;2024-02-26T14:15:09;7.70;99.90
24011;DHT22;12217;50.792;4.372;2024-02-26T14:17:36;7.70;99.90
24011;DHT22;12217;50.792;4.372;2024-02-26T14:20:11;7.50;99.90
24011;DHT22;12217;50.792;4.372;2024-02-26T14:22:36;7.50;99.90
24011;DHT22;12217;50.792;4.372;2024-02-26T14:25:02;7.70;99.90
24011;DHT22;12217;50.792;4.372;2024-02-26T14:27:28;7.70;99.90
24011;DHT22;12217;50.792;4.372;2024-02-26T14:29:54;7.70;99.90
24011;DHT22;12217;50.792;4.372;2024-02-26T14:32:20;7.70;99.90
24011;DHT22;12217;50.792;4.372;2024-02-26T14:34:46;7.80;99.90
24011;DHT22;12217;50.792;4.372;2024-02-26T14:37:11;7.80;99.90
24011;DHT22;12217;50.792;4.372;2024-02-26T14:39:37;7.90;99.90
24011;DHT22;12217;50.792;4.372;2024-02-26T14:42:04;7.80;99.90
24011;DHT22;12217;50.792;4.372;2024-02-26T14:44:29;7.60;99.90
24011;DHT22;12217;50.792;4.372;2024-02-26T14:46:55;7.80;99.90
24011;DHT22;12217;50.792;4.372;2024-02-26T14:49:21;7.80;99.90
24011;DHT22;12217;50.792;4.372;2024-02-26T14:51:46;7.70;99.90
24011;DHT22;12217;50.792;4.372;2024-02-26T14:54:12;7.60;99.90
24011;DHT22;12217;50.792;4.372;2024-02-26T14:56:38;7.70;99.90
24011;DHT22;12217;50.792;4.372;2024-02-26T14:59:04;7.60;99.90
24011;DHT22;12217;50.792;4.372;2024-02-26T15:01:30;7.70;99.90
24011;DHT22;12217;50.792;4.372;2024-02-26T15:03:56;7.90;99.90
24011;DHT22;12217;50.792;4.372;2024-02-26T15:06:22;7.90;99.90
24011;DHT22;12217;50.792;4.372;2024-02-26T15:08:48;8.00;99.90
24011;DHT22;12217;50.792;4.372;2024-02-26T15:11:14;7.90;99.90
24011;DHT22;12217;50.792;4.372;2024-02-26T15:13:39;7.80;99.90
24011;DHT22;12217;50.792;4.372;2024-02-26T15:16:20;7.80;99.90
24011;DHT22;12217;50.792;4.372;2024-02-26T15:18:46;7.70;99.90
24011;DHT22;12217;50.792;4.372;2024-02-26T15:21:12;7.70;99.90
24011;DHT22;12217;50.792;4.372;2024-02-26T15:23:43;7.80;99.90
24011;DHT22;12217;50.792;4.372;2024-02-26T15:26:19;7.80;99.90
24011;DHT22;12217;50.792;4.372;2024-02-26T15:28:47;7.80;99.90
24011;DHT22;12217;50.792;4.372;2024-02-26T15:31:20;7.60;99.90
24011;DHT22;12217;50.792;4.372;2024-02-26T15:33:51;7.60;99.90
24011;DHT22;12217;50.792;4.372;2024-02-26T15:36:22;7.60;99.90
24011;DHT22;12217;50.792;4.372;2024-02-26T15:39:04;7.50;99.90
24011;DHT22;12217;50.792;4.372;2024-02-26T15:41:46;7.70;99.90